Lena-s. — V2EC7 — position and weather

sailwx.info

Track history (hours):
 
Tides and Currents Weather Stations Pressure Air Temp Water Temp Dewpoint Dewpoint Depression Visibility Wind Speed Wind Dir Waves Ship Positions

Lena-s.

Last reported at 2017-Jan-10 22:33 UTC. Time now 2017-Jan-20 07:50 UTC.
Position N 22°18' E 120°10'.
Warning: this ship's position is 9 days out of date.

Length 261 m; draft 10.9 m.

Type: Ship (hazmat cat D). MMSI: 305386000.

Date/timePositionNaut miles runAvg speedWind from/ knotsBaromVisibWave heightAir tempDewpointWater temp
2017-Jan-10 22:33N 22°18' E 120°10'1515.3
2017-Jan-10 21:33N 22°33' E 120°15'4 3.5
2017-Jan-10 20:30N 22°34' E 120°18'0 0.0
2017-Jan-10 19:30N 22°34' E 120°18'0 0.0
2017-Jan-10 18:30N 22°34' E 120°18'0 0.0
2017-Jan-10 17:12N 22°34' E 120°18'0 0.0
2017-Jan-10 16:30N 22°34' E 120°18'0 0.0
2017-Jan-10 15:30N 22°34' E 120°18'0 0.0
2017-Jan-10 14:30N 22°34' E 120°18'1 0.8
2017-Jan-10 13:33N 22°33' E 120°19'5 5.2
2017-Jan-10 12:33N 22°32' E 120°14'3 2.9
2017-Jan-10 11:33N 22°32' E 120°10'1212.3
2017-Jan-10 10:34N 22°40' E 120°01'52116.1
2017-Jan-09 02:11N 31°06' E 122°26'4 6.8
2017-Jan-09 01:32N 31°09' E 122°29'0 0.2
2017-Jan-08 23:33N 31°09' E 122°29'0 0.0
2017-Jan-08 17:24N 31°09' E 122°29'0 0.1
2017-Jan-08 16:30N 31°09' E 122°29'0 0.0
2017-Jan-08 13:06N 31°09' E 122°29'0 0.0
2017-Jan-08 12:09N 31°09' E 122°29'0 0.0
2017-Jan-08 11:30N 31°09' E 122°29'0 0.0
2017-Jan-08 07:21N 31°09' E 122°29'0 0.1
2017-Jan-08 06:24N 31°09' E 122°29'0 0.1
2017-Jan-08 05:30N 31°09' E 122°29'0 0.0
2017-Jan-08 02:15N 31°09' E 122°29'0 0.0
2017-Jan-07 23:09N 31°09' E 122°29'0 0.0
2017-Jan-07 22:27N 31°09' E 122°29'0 0.0
2017-Jan-07 18:33N 31°09' E 122°29'0 0.0
2017-Jan-07 17:33N 31°09' E 122°29'0 0.3
2017-Jan-07 16:30N 31°09' E 122°29'3 3.6
2017-Jan-07 15:33N 31°07' E 122°26'1212.0
2017-Jan-07 14:33N 31°09' E 122°13'1414.3
2017-Jan-07 13:33N 31°15' E 121°58'1414.1
2017-Jan-07 12:33N 31°20' E 121°42'6 6.1
2017-Jan-07 11:33N 31°22' E 121°35'0 0.0
2017-Jan-07 10:33N 31°22' E 121°35'0 0.0
2017-Jan-07 09:33N 31°22' E 121°35'0 0.0
2017-Jan-07 08:33N 31°22' E 121°35'0 0.0
2017-Jan-07 07:33N 31°22' E 121°35'0 0.0
2017-Jan-07 06:33N 31°22' E 121°35'0 0.0
2017-Jan-07 05:33N 31°22' E 121°35'0 0.0
2017-Jan-07 04:33N 31°22' E 121°35'0 0.0
2017-Jan-07 03:33N 31°22' E 121°35'0 0.0
2017-Jan-07 02:27N 31°22' E 121°35'0 0.0
2017-Jan-07 01:33N 31°22' E 121°35'0 0.0
2017-Jan-07 00:33N 31°22' E 121°35'0 0.0
2017-Jan-06 23:30N 31°22' E 121°35'0 0.0
2017-Jan-06 22:33N 31°22' E 121°35'4 3.7
2017-Jan-06 21:33N 31°21' E 121°40'1010.1
2017-Jan-06 20:33N 31°17' E 121°50'1010.3
2017-Jan-06 19:33N 31°14' E 122°02'1010.2
2017-Jan-06 18:33N 31°10' E 122°13'1010.0
2017-Jan-06 17:33N 31°06' E 122°24'8 8.2
2017-Jan-06 16:32N 31°12' E 122°31'  
Track history (hours):
 
Tides and Currents Weather Stations Pressure Air Temp Water Temp Dewpoint Dewpoint Depression Visibility Wind Speed Wind Dir Waves Ship Positions

Lena-s.

Last reported at 2017-Jan-10 22:33 UTC. Time now 2017-Jan-20 07:50 UTC.
Position N 22°18' E 120°10'.
Warning: this ship's position is 9 days out of date.

Length 261 m; draft 10.9 m.

Type: Ship (hazmat cat D). MMSI: 305386000.

Date/timePositionNaut miles runAvg speedWind from/ knotsBaromVisibWave heightAir tempDewpointWater temp
2017-Jan-10 22:33N 22°18' E 120°10'1515.3
2017-Jan-10 21:33N 22°33' E 120°15'4 3.5
2017-Jan-10 20:30N 22°34' E 120°18'0 0.0
2017-Jan-10 19:30N 22°34' E 120°18'0 0.0
2017-Jan-10 18:30N 22°34' E 120°18'0 0.0
2017-Jan-10 17:12N 22°34' E 120°18'0 0.0
2017-Jan-10 16:30N 22°34' E 120°18'0 0.0
2017-Jan-10 15:30N 22°34' E 120°18'0 0.0
2017-Jan-10 14:30N 22°34' E 120°18'1 0.8
2017-Jan-10 13:33N 22°33' E 120°19'5 5.2
2017-Jan-10 12:33N 22°32' E 120°14'3 2.9
2017-Jan-10 11:33N 22°32' E 120°10'1212.3
2017-Jan-10 10:34N 22°40' E 120°01'52116.1
2017-Jan-09 02:11N 31°06' E 122°26'4 6.8
2017-Jan-09 01:32N 31°09' E 122°29'0 0.2
2017-Jan-08 23:33N 31°09' E 122°29'0 0.0
2017-Jan-08 17:24N 31°09' E 122°29'0 0.1
2017-Jan-08 16:30N 31°09' E 122°29'0 0.0
2017-Jan-08 13:06N 31°09' E 122°29'0 0.0
2017-Jan-08 12:09N 31°09' E 122°29'0 0.0
2017-Jan-08 11:30N 31°09' E 122°29'0 0.0
2017-Jan-08 07:21N 31°09' E 122°29'0 0.1
2017-Jan-08 06:24N 31°09' E 122°29'0 0.1
2017-Jan-08 05:30N 31°09' E 122°29'0 0.0
2017-Jan-08 02:15N 31°09' E 122°29'0 0.0
2017-Jan-07 23:09N 31°09' E 122°29'0 0.0
2017-Jan-07 22:27N 31°09' E 122°29'0 0.0
2017-Jan-07 18:33N 31°09' E 122°29'0 0.0
2017-Jan-07 17:33N 31°09' E 122°29'0 0.3
2017-Jan-07 16:30N 31°09' E 122°29'3 3.6
2017-Jan-07 15:33N 31°07' E 122°26'1212.0
2017-Jan-07 14:33N 31°09' E 122°13'1414.3
2017-Jan-07 13:33N 31°15' E 121°58'1414.1
2017-Jan-07 12:33N 31°20' E 121°42'6 6.1
2017-Jan-07 11:33N 31°22' E 121°35'0 0.0
2017-Jan-07 10:33N 31°22' E 121°35'0 0.0
2017-Jan-07 09:33N 31°22' E 121°35'0 0.0
2017-Jan-07 08:33N 31°22' E 121°35'0 0.0
2017-Jan-07 07:33N 31°22' E 121°35'0 0.0
2017-Jan-07 06:33N 31°22' E 121°35'0 0.0
2017-Jan-07 05:33N 31°22' E 121°35'0 0.0
2017-Jan-07 04:33N 31°22' E 121°35'0 0.0
2017-Jan-07 03:33N 31°22' E 121°35'0 0.0
2017-Jan-07 02:27N 31°22' E 121°35'0 0.0
2017-Jan-07 01:33N 31°22' E 121°35'0 0.0
2017-Jan-07 00:33N 31°22' E 121°35'0 0.0
2017-Jan-06 23:30N 31°22' E 121°35'0 0.0
2017-Jan-06 22:33N 31°22' E 121°35'4 3.7
2017-Jan-06 21:33N 31°21' E 121°40'1010.1
2017-Jan-06 20:33N 31°17' E 121°50'1010.3
2017-Jan-06 19:33N 31°14' E 122°02'1010.2
2017-Jan-06 18:33N 31°10' E 122°13'1010.0
2017-Jan-06 17:33N 31°06' E 122°24'8 8.2
2017-Jan-06 16:32N 31°12' E 122°31'  

Dump ship's entire track history